createdAt,value
2023-05-08T00:00:31.563Z,94136.41
2023-05-08T00:02:57.977Z,94142.88
2023-05-08T00:05:24.492Z,94130.25
2023-05-08T00:07:53.479Z,94136.00
2023-05-08T00:10:19.785Z,94136.03
2023-05-08T00:12:46.152Z,94135.59
2023-05-08T00:15:12.574Z,94140.88
2023-05-08T00:17:38.904Z,94126.75
2023-05-08T00:20:05.581Z,94133.63
2023-05-08T00:22:31.896Z,94136.47
2023-05-08T00:24:58.204Z,94143.53
2023-05-08T00:27:24.520Z,94133.66
2023-05-08T00:29:50.994Z,94132.88
2023-05-08T00:32:17.397Z,94122.38
2023-05-08T00:34:44.767Z,94129.19
2023-05-08T00:37:11.208Z,94125.53
2023-05-08T00:39:37.503Z,94118.22
2023-05-08T00:42:03.840Z,94127.88
2023-05-08T00:44:30.141Z,94126.34
2023-05-08T00:46:56.460Z,94126.81
2023-05-08T00:49:23.367Z,94132.47
2023-05-08T00:51:52.461Z,94131.69
2023-05-08T00:54:19.350Z,94134.09
2023-05-08T00:56:45.984Z,94137.16
2023-05-08T00:59:14.152Z,94142.97
2023-05-08T01:01:40.802Z,94140.19
2023-05-08T01:04:07.467Z,94144.22
2023-05-08T01:06:37.398Z,94138.59
2023-05-08T01:09:03.993Z,94138.16
2023-05-08T01:11:34.003Z,94142.81
2023-05-08T01:14:03.306Z,94141.81
2023-05-08T01:16:36.103Z,94140.97
2023-05-08T01:19:21.377Z,94144.59
2023-05-08T01:22:00.135Z,94149.28
2023-05-08T01:24:45.185Z,94148.06
2023-05-08T01:27:23.740Z,94151.47
2023-05-08T01:29:56.069Z,94148.63
2023-05-08T01:32:24.912Z,94150.63
2023-05-08T01:34:57.523Z,94149.44
2023-05-08T01:37:30.109Z,94156.31
2023-05-08T01:40:15.547Z,94155.53
2023-05-08T01:42:42.053Z,94154.34
2023-05-08T01:45:12.572Z,94147.03
2023-05-08T01:47:39.319Z,94151.06
2023-05-08T01:50:08.953Z,94160.00
2023-05-08T01:52:37.169Z,94157.16
2023-05-08T01:55:09.169Z,94156.75
2023-05-08T01:57:38.307Z,94158.69
2023-05-08T02:00:05.068Z,94157.97
2023-05-08T02:02:32.694Z,94163.28
2023-05-08T02:05:02.111Z,94165.28
2023-05-08T02:07:28.634Z,94159.19
2023-05-08T02:09:55.479Z,94153.94
2023-05-08T02:12:22.424Z,94151.34
2023-05-08T02:14:49.989Z,94153.59
2023-05-08T02:17:17.137Z,94153.63
2023-05-08T02:19:44.473Z,94154.38
2023-05-08T02:22:13.361Z,94148.31
2023-05-08T02:24:40.659Z,94163.25
2023-05-08T02:27:09.309Z,94154.78
2023-05-08T02:29:36.327Z,94154.59
2023-05-08T02:32:03.518Z,94155.63
2023-05-08T02:34:30.525Z,94155.19
2023-05-08T02:36:57.622Z,94158.44
2023-05-08T02:39:26.335Z,94157.63
2023-05-08T02:41:52.742Z,94152.94
2023-05-08T02:44:19.271Z,94149.53
2023-05-08T02:47:21.281Z,94152.94
2023-05-08T02:49:56.802Z,94154.38
2023-05-08T02:52:30.888Z,94151.19
2023-05-08T02:54:59.182Z,94151.19
2023-05-08T02:57:28.765Z,94158.88
2023-05-08T03:00:04.171Z,94154.25
2023-05-08T03:02:37.978Z,94154.47
2023-05-08T03:05:08.250Z,94151.63
2023-05-08T03:07:38.260Z,94151.63
2023-05-08T03:10:07.989Z,94148.41
2023-05-08T03:12:36.065Z,94147.19
2023-05-08T03:15:14.592Z,94144.34
2023-05-08T03:17:43.263Z,94141.13
2023-05-08T03:20:12.533Z,94145.16
2023-05-08T03:22:41.984Z,94143.16
2023-05-08T03:25:10.540Z,94141.13
2023-05-08T03:27:37.473Z,94140.72
2023-05-08T03:30:04.537Z,94135.06
2023-05-08T03:32:31.651Z,94138.69
2023-05-08T03:34:59.086Z,94143.94
2023-05-08T03:37:27.045Z,94147.53
2023-05-08T03:39:53.929Z,94141.53
2023-05-08T03:42:23.320Z,94140.31
2023-05-08T03:44:51.300Z,94142.31
2023-05-08T03:47:21.484Z,94151.25
2023-05-08T03:49:48.742Z,94148.63
2023-05-08T03:52:15.532Z,94154.09
2023-05-08T03:54:42.054Z,94147.19
2023-05-08T03:57:08.622Z,94152.84
2023-05-08T03:59:40.918Z,94154.47
2023-05-08T04:02:12.672Z,94149.44
2023-05-08T04:04:43.943Z,94151.47
2023-05-08T04:07:10.226Z,94157.72
2023-05-08T04:09:59.173Z,94151.22
2023-05-08T04:12:44.526Z,94161.72
2023-05-08T04:15:17.477Z,94160.13
2023-05-08T04:17:47.838Z,94164.34
2023-05-08T04:20:16.570Z,94171.38
2023-05-08T04:22:45.026Z,94171.41
2023-05-08T04:25:12.631Z,94174.63
2023-05-08T04:27:40.630Z,94175.06
2023-05-08T04:30:08.088Z,94179.47
2023-05-08T04:32:36.804Z,94169.81
2023-05-08T04:35:05.706Z,94175.06
2023-05-08T04:37:32.070Z,94173.03
2023-05-08T04:39:58.845Z,94181.09
2023-05-08T04:42:26.234Z,94178.09
2023-05-08T04:44:53.126Z,94179.28
2023-05-08T04:47:19.643Z,94181.91
2023-05-08T04:49:46.008Z,94181.09
2023-05-08T04:52:12.566Z,94184.94
2023-05-08T04:54:39.872Z,94180.91
2023-05-08T04:57:08.286Z,94185.13
2023-05-08T04:59:34.623Z,94191.59
2023-05-08T05:02:06.057Z,94189.16
2023-05-08T05:04:32.572Z,94190.16
2023-05-08T05:06:58.980Z,94187.13
2023-05-08T05:09:25.842Z,94190.34
2023-05-08T05:11:52.154Z,94191.50
2023-05-08T05:14:18.476Z,94191.72
2023-05-08T05:16:45.125Z,94192.31
2023-05-08T05:19:11.808Z,94193.91
2023-05-08T05:21:38.501Z,94198.75
2023-05-08T05:24:06.215Z,94193.50
2023-05-08T05:26:33.000Z,94198.75
2023-05-08T05:28:59.811Z,94199.94
2023-05-08T05:31:26.298Z,94206.19
2023-05-08T05:33:52.684Z,94198.31
2023-05-08T05:36:18.988Z,94200.53
2023-05-08T05:38:45.283Z,94209.22
2023-05-08T05:41:11.964Z,94209.16
2023-05-08T05:43:38.270Z,94205.09
2023-05-08T05:46:08.524Z,94211.22
2023-05-08T05:48:35.328Z,94205.94
2023-05-08T05:51:02.124Z,94208.75
2023-05-08T05:53:28.436Z,94206.72
2023-05-08T05:55:54.754Z,94211.91
2023-05-08T05:58:21.051Z,94211.03
2023-05-08T06:00:47.714Z,94211.47
2023-05-08T06:03:14.483Z,94204.16
2023-05-08T06:05:41.186Z,94213.47
2023-05-08T06:08:08.441Z,94225.13
2023-05-08T06:10:35.213Z,94214.84
2023-05-08T06:13:01.625Z,94208.13
2023-05-08T06:15:28.082Z,94216.19
2023-05-08T06:17:54.550Z,94219.66
2023-05-08T06:20:21.454Z,94225.94
2023-05-08T06:22:47.801Z,94222.28
2023-05-08T06:25:14.318Z,94225.09
2023-05-08T06:27:40.934Z,94216.63
2023-05-08T06:30:10.834Z,94225.44
2023-05-08T06:32:37.315Z,94227.47
2023-05-08T06:35:03.873Z,94233.09
2023-05-08T06:37:30.175Z,94228.41
2023-05-08T06:40:10.129Z,94226.41
2023-05-08T06:42:37.701Z,94223.34
2023-05-08T06:45:04.506Z,94220.53
2023-05-08T06:47:30.837Z,94215.94
2023-05-08T06:49:57.161Z,94215.09
2023-05-08T06:52:25.511Z,94220.56
2023-05-08T06:54:51.849Z,94212.72
2023-05-08T06:57:18.224Z,94221.22
2023-05-08T06:59:44.569Z,94214.56
2023-05-08T07:02:11.158Z,94212.09
2023-05-08T07:04:38.505Z,94217.38
2023-05-08T07:07:06.779Z,94217.22
2023-05-08T07:09:33.148Z,94215.84
2023-05-08T07:11:59.446Z,94216.34
2023-05-08T07:14:25.763Z,94216.50
2023-05-08T07:16:52.081Z,94218.06
2023-05-08T07:19:19.505Z,94214.22
2023-05-08T07:21:47.338Z,94220.50
2023-05-08T07:24:13.810Z,94221.81
2023-05-08T07:26:40.109Z,94218.78
2023-05-08T07:29:06.448Z,94219.03
2023-05-08T07:31:32.759Z,94220.84
2023-05-08T07:33:59.100Z,94216.28
2023-05-08T07:36:25.412Z,94221.50
2023-05-08T07:38:51.713Z,94221.72
2023-05-08T07:41:18.097Z,94222.34
2023-05-08T07:43:45.199Z,94222.72
2023-05-08T07:46:18.258Z,94224.31
2023-05-08T07:48:44.617Z,94222.28
2023-05-08T07:51:11.362Z,94223.75
2023-05-08T07:53:37.698Z,94224.22
2023-05-08T07:56:04.175Z,94222.88
2023-05-08T07:58:30.653Z,94222.38
2023-05-08T08:00:57.023Z,94218.28
2023-05-08T08:03:23.510Z,94218.88
2023-05-08T08:05:49.887Z,94219.59
2023-05-08T08:08:16.408Z,94213.78
2023-05-08T08:10:42.721Z,94218.13
2023-05-08T08:13:09.106Z,94218.31
2023-05-08T08:15:35.656Z,94217.63
2023-05-08T08:18:02.879Z,94219.22
2023-05-08T08:20:29.418Z,94215.94
2023-05-08T08:22:55.734Z,94210.41
2023-05-08T08:25:24.500Z,94214.69
2023-05-08T08:27:50.952Z,94209.34
2023-05-08T08:30:18.641Z,94212.47
2023-05-08T08:32:45.537Z,94208.31
2023-05-08T08:35:12.138Z,94213.59
2023-05-08T08:37:38.793Z,94218.09
2023-05-08T08:40:05.637Z,94211.31
2023-05-08T08:42:32.120Z,94208.81
2023-05-08T08:44:58.502Z,94216.63
2023-05-08T08:47:28.274Z,94212.53
2023-05-08T08:49:55.311Z,94211.66
2023-05-08T08:52:42.519Z,94211.00
2023-05-08T08:55:11.660Z,94208.69
2023-05-08T08:57:45.236Z,94206.50
2023-05-08T09:00:12.144Z,94207.88
2023-05-08T09:02:39.089Z,94208.66
2023-05-08T09:05:06.099Z,94208.31
2023-05-08T09:07:32.956Z,94207.81
2023-05-08T09:09:59.356Z,94219.53
2023-05-08T09:12:25.676Z,94213.06
2023-05-08T09:14:52.034Z,94208.34
2023-05-08T09:17:18.488Z,94216.44
2023-05-08T09:19:44.906Z,94219.06
2023-05-08T09:22:11.746Z,94221.03
2023-05-08T09:24:54.249Z,94216.03
2023-05-08T09:27:24.776Z,94216.03
2023-05-08T09:30:07.807Z,94220.06
2023-05-08T09:32:38.812Z,94219.50
2023-05-08T09:35:06.331Z,94220.44
2023-05-08T09:37:33.855Z,94225.53
2023-05-08T09:40:20.828Z,94220.50
2023-05-08T09:42:48.130Z,94214.75
2023-05-08T09:45:28.131Z,94222.81
2023-05-08T09:47:54.611Z,94219.00
2023-05-08T09:50:20.996Z,94220.03
2023-05-08T09:52:48.886Z,94215.81
2023-05-08T09:55:15.369Z,94220.16
2023-05-08T09:57:52.090Z,94217.63
2023-05-08T10:00:18.561Z,94220.06
2023-05-08T10:02:58.237Z,94215.00
2023-05-08T10:05:32.248Z,94208.81
2023-05-08T10:07:59.304Z,94216.13
2023-05-08T10:10:30.763Z,94209.84
2023-05-08T10:12:57.775Z,94202.06
2023-05-08T10:15:25.519Z,94213.31
2023-05-08T10:18:12.479Z,94207.31
2023-05-08T10:20:39.601Z,94211.75
2023-05-08T10:23:11.188Z,94207.25
2023-05-08T10:25:41.469Z,94213.06
2023-05-08T10:28:11.914Z,94202.25
2023-05-08T10:30:38.628Z,94193.16
2023-05-08T10:33:09.018Z,94194.66
2023-05-08T10:35:36.753Z,94192.56
2023-05-08T10:38:04.349Z,94197.78
2023-05-08T10:40:30.677Z,94192.75
2023-05-08T10:42:57.658Z,94194.16
2023-05-08T10:45:24.250Z,94194.09
2023-05-08T10:47:59.833Z,94190.25
2023-05-08T10:50:42.076Z,94192.91
2023-05-08T10:53:20.866Z,94182.63
2023-05-08T10:55:49.027Z,94181.59
2023-05-08T10:58:28.403Z,94178.31
2023-05-08T11:00:59.565Z,94173.50
2023-05-08T11:03:32.244Z,94176.19
2023-05-08T11:06:00.129Z,94178.47
2023-05-08T11:08:27.655Z,94176.09
2023-05-08T11:11:00.352Z,94174.63
2023-05-08T11:13:28.156Z,94173.88
2023-05-08T11:15:54.671Z,94177.00
2023-05-08T11:18:22.154Z,94171.53
2023-05-08T11:21:08.908Z,94169.91
2023-05-08T11:23:36.209Z,94176.97
2023-05-08T11:26:06.835Z,94176.66
2023-05-08T11:28:37.421Z,94169.75
2023-05-08T11:31:04.738Z,94169.28
2023-05-08T11:33:37.702Z,94172.28
2023-05-08T11:36:07.018Z,94173.81
2023-05-08T11:38:35.784Z,94182.91
2023-05-08T11:41:06.401Z,94187.31
2023-05-08T11:43:32.734Z,94186.88
2023-05-08T11:46:04.214Z,94188.53
2023-05-08T11:48:30.916Z,94189.06
2023-05-08T11:50:58.783Z,94195.03
2023-05-08T11:53:25.530Z,94195.81
2023-05-08T11:55:55.034Z,94191.94
2023-05-08T11:58:21.809Z,94206.97
2023-05-08T12:00:51.196Z,94200.66
2023-05-08T12:03:18.721Z,94203.41
2023-05-08T12:05:45.648Z,94205.19
2023-05-08T12:08:12.592Z,94194.38
2023-05-08T12:10:58.103Z,94207.44
2023-05-08T12:13:27.880Z,94199.19
2023-05-08T12:15:56.041Z,94202.69
2023-05-08T12:18:23.099Z,94204.88
2023-05-08T12:21:07.527Z,94206.63
2023-05-08T12:23:33.837Z,94202.06
2023-05-08T12:26:01.344Z,94199.75
2023-05-08T12:28:27.939Z,94201.06
2023-05-08T12:30:54.402Z,94202.69
2023-05-08T12:33:21.005Z,94203.16
2023-05-08T12:35:47.454Z,94203.28
2023-05-08T12:38:13.847Z,94193.75
2023-05-08T12:40:40.146Z,94197.72
2023-05-08T12:43:06.536Z,94201.78
2023-05-08T12:45:33.975Z,94209.25
2023-05-08T12:48:04.467Z,94211.13
2023-05-08T12:50:34.657Z,94214.28
2023-05-08T12:53:05.122Z,94213.69
2023-05-08T12:55:32.345Z,94210.53
2023-05-08T12:58:00.429Z,94214.22
2023-05-08T13:00:33.928Z,94212.16
2023-05-08T13:03:00.361Z,94209.06
2023-05-08T13:05:26.857Z,94207.97
2023-05-08T13:07:58.808Z,94210.41
2023-05-08T13:10:43.187Z,94201.72
2023-05-08T13:13:09.548Z,94199.66
2023-05-08T13:15:35.875Z,94201.72
2023-05-08T13:18:02.249Z,94194.22
2023-05-08T13:20:28.566Z,94194.56
2023-05-08T13:22:54.867Z,94212.09
2023-05-08T13:25:21.203Z,94195.72
2023-05-08T13:27:47.509Z,94191.25
2023-05-08T13:30:15.752Z,94197.44
2023-05-08T13:32:42.137Z,94194.81
2023-05-08T13:35:08.537Z,94201.94
2023-05-08T13:37:34.849Z,94202.28
2023-05-08T13:40:03.628Z,94192.47
2023-05-08T13:42:29.938Z,94186.31
2023-05-08T13:44:56.221Z,94191.59
2023-05-08T13:47:22.571Z,94188.09
2023-05-08T13:49:50.946Z,94191.09
2023-05-08T13:52:17.364Z,94195.59
2023-05-08T13:54:43.660Z,94199.09
2023-05-08T13:57:13.118Z,94200.84
2023-05-08T13:59:39.517Z,94201.81
2023-05-08T14:02:06.344Z,94201.16
2023-05-08T14:04:33.916Z,94199.94
2023-05-08T14:07:00.898Z,94194.84
2023-05-08T14:09:29.361Z,94201.53
2023-05-08T14:11:55.672Z,94203.25
2023-05-08T14:14:21.970Z,94199.59
2023-05-08T14:16:48.440Z,94209.09
2023-05-08T14:19:14.773Z,94196.38
2023-05-08T14:21:41.177Z,94199.47
2023-05-08T14:24:08.832Z,94199.03
2023-05-08T14:26:35.320Z,94198.44
2023-05-08T14:29:01.679Z,94194.38
2023-05-08T14:31:28.006Z,94195.81
2023-05-08T14:33:54.352Z,94196.81
2023-05-08T14:36:20.673Z,94193.44
2023-05-08T14:38:47.165Z,94194.06
2023-05-08T14:41:14.570Z,94192.44
2023-05-08T14:43:42.729Z,94192.44
2023-05-08T14:46:09.096Z,94195.06
2023-05-08T14:48:35.459Z,94188.19
2023-05-08T14:51:01.817Z,94185.44
2023-05-08T14:53:30.284Z,94195.66
2023-05-08T14:55:59.196Z,94199.31
2023-05-08T14:58:25.750Z,94201.34
2023-05-08T15:00:52.111Z,94202.09
2023-05-08T15:03:18.773Z,94197.25
2023-05-08T15:05:47.096Z,94200.34
2023-05-08T15:08:13.852Z,94202.19
2023-05-08T15:10:40.311Z,94205.03
2023-05-08T15:13:06.710Z,94207.38
2023-05-08T15:15:33.156Z,94207.75
2023-05-08T15:17:59.572Z,94209.41
2023-05-08T15:20:25.955Z,94214.69
2023-05-08T15:22:52.298Z,94208.00
2023-05-08T15:25:18.667Z,94210.88
2023-05-08T15:27:45.029Z,94213.59
2023-05-08T15:30:11.579Z,94214.13
2023-05-08T15:32:39.271Z,94210.56
2023-05-08T15:35:05.964Z,94212.22
2023-05-08T15:37:32.292Z,94212.22
2023-05-08T15:39:58.676Z,94208.97
2023-05-08T15:42:24.998Z,94213.59
2023-05-08T15:44:55.370Z,94209.38
2023-05-08T15:47:23.106Z,94205.03
2023-05-08T15:49:51.813Z,94215.56
2023-05-08T15:52:19.679Z,94208.53
2023-05-08T15:54:49.600Z,94212.28
2023-05-08T15:57:16.308Z,94207.53
2023-05-08T15:59:43.713Z,94213.72
2023-05-08T16:02:10.192Z,94208.66
2023-05-08T16:04:36.565Z,94199.75
2023-05-08T16:07:02.920Z,94208.22
2023-05-08T16:09:29.233Z,94199.06
2023-05-08T16:11:55.808Z,94206.97
2023-05-08T16:14:22.114Z,94204.59
2023-05-08T16:16:48.416Z,94210.88
2023-05-08T16:19:15.790Z,94214.69
2023-05-08T16:21:42.171Z,94210.78
2023-05-08T16:24:08.587Z,94208.97
2023-05-08T16:26:34.907Z,94212.94
2023-05-08T16:29:01.193Z,94217.31
2023-05-08T16:31:27.533Z,94214.25
2023-05-08T16:33:53.954Z,94208.38
2023-05-08T16:36:20.272Z,94214.38
2023-05-08T16:38:46.584Z,94213.22
2023-05-08T16:41:13.396Z,94210.44
2023-05-08T16:43:40.743Z,94219.34
2023-05-08T16:46:07.454Z,94216.13
2023-05-08T16:48:34.263Z,94220.38
2023-05-08T16:51:00.594Z,94231.78
2023-05-08T16:53:32.394Z,94216.63
2023-05-08T16:55:58.711Z,94218.03
2023-05-08T16:58:27.001Z,94223.59
2023-05-08T17:00:53.509Z,94225.22
2023-05-08T17:03:19.975Z,94217.28
2023-05-08T17:05:46.362Z,94224.47
2023-05-08T17:08:14.703Z,94221.97
2023-05-08T17:10:41.356Z,94225.78
2023-05-08T17:13:07.765Z,94221.97
2023-05-08T17:15:35.122Z,94223.75
2023-05-08T17:18:01.495Z,94233.84
2023-05-08T17:20:27.933Z,94229.44
2023-05-08T17:22:59.307Z,94229.88
2023-05-08T17:25:28.900Z,94225.53
2023-05-08T17:27:57.535Z,94232.69
2023-05-08T17:30:23.963Z,94228.03
2023-05-08T17:35:18.174Z,94233.84
2023-05-08T17:37:44.501Z,94240.25
2023-05-08T17:40:13.093Z,94232.53
2023-05-08T17:42:39.606Z,94240.34
2023-05-08T17:45:06.207Z,94239.16
2023-05-08T17:47:32.548Z,94251.34
2023-05-08T17:49:58.905Z,94246.28
2023-05-08T17:52:25.228Z,94246.88
2023-05-08T17:54:51.630Z,94257.13
2023-05-08T17:57:17.940Z,94249.28
2023-05-08T17:59:44.274Z,94251.50
2023-05-08T18:02:10.609Z,94257.66
2023-05-08T18:04:38.963Z,94254.03
2023-05-08T18:07:05.345Z,94249.34
2023-05-08T18:09:31.657Z,94254.66
2023-05-08T18:12:02.243Z,94259.75
2023-05-08T18:14:29.593Z,94259.84
2023-05-08T18:16:55.977Z,94266.34
2023-05-08T18:19:22.288Z,94265.16
2023-05-08T18:21:48.735Z,94269.22
2023-05-08T18:24:16.068Z,94266.00
2023-05-08T18:26:42.368Z,94264.81
2023-05-08T18:29:08.681Z,94263.59
2023-05-08T18:31:35.015Z,94267.19
2023-05-08T18:34:02.120Z,94259.19
2023-05-08T18:36:28.430Z,94258.00
2023-05-08T18:38:54.810Z,94267.28
2023-05-08T18:41:21.351Z,94258.03
2023-05-08T18:43:48.690Z,94263.28
2023-05-08T18:46:14.984Z,94266.47
2023-05-08T18:48:41.397Z,94266.50
2023-05-08T18:51:07.692Z,94267.34
2023-05-08T18:53:38.040Z,94268.16
2023-05-08T18:56:04.811Z,94266.53
2023-05-08T18:58:31.308Z,94270.19
2023-05-08T19:00:58.298Z,94276.22
2023-05-08T19:03:25.011Z,94279.06
2023-05-08T19:05:54.154Z,94276.25
2023-05-08T19:08:20.564Z,94272.22
2023-05-08T19:10:46.893Z,94277.47
2023-05-08T19:13:15.386Z,94277.03
2023-05-08T19:15:41.778Z,94285.13
2023-05-08T19:18:09.009Z,94287.56
2023-05-08T19:20:35.374Z,94283.94
2023-05-08T19:23:01.726Z,94278.91
2023-05-08T19:25:28.067Z,94279.91
2023-05-08T19:27:54.465Z,94278.31
2023-05-08T19:30:20.821Z,94282.34
2023-05-08T19:32:47.159Z,94284.56
2023-05-08T19:35:13.658Z,94284.38
2023-05-08T19:37:45.074Z,94286.38
2023-05-08T19:40:11.797Z,94282.75
2023-05-08T19:42:38.316Z,94287.59
2023-05-08T19:45:04.998Z,94283.97
2023-05-08T19:47:31.340Z,94281.13
2023-05-08T19:49:57.792Z,94281.97
2023-05-08T19:52:24.092Z,94286.81
2023-05-08T19:54:50.559Z,94283.56
2023-05-08T19:57:16.907Z,94284.78
2023-05-08T19:59:43.228Z,94284.78
2023-05-08T20:02:09.529Z,94289.22
2023-05-08T20:04:48.861Z,94288.41
2023-05-08T20:07:22.110Z,94287.19
2023-05-08T20:09:49.479Z,94277.91
2023-05-08T20:12:15.906Z,94283.97
2023-05-08T20:14:42.202Z,94273.06
2023-05-08T20:17:08.596Z,94266.22
2023-05-08T20:19:34.952Z,94272.66
2023-05-08T20:22:03.332Z,94278.72
2023-05-08T20:24:29.661Z,94273.25
2023-05-08T20:27:03.608Z,94275.91
2023-05-08T20:29:29.967Z,94273.09
2023-05-08T20:31:58.334Z,94269.84
2023-05-08T20:34:24.667Z,94273.09
2023-05-08T20:36:51.029Z,94269.06
2023-05-08T20:39:17.348Z,94265.41
2023-05-08T20:41:44.753Z,94256.13
2023-05-08T20:44:12.382Z,94259.75
2023-05-08T20:46:40.173Z,94261.78
2023-05-08T20:49:07.570Z,94256.34
2023-05-08T20:51:33.971Z,94253.91
2023-05-08T20:54:00.361Z,94264.63
2023-05-08T20:56:26.665Z,94253.31
2023-05-08T20:58:52.967Z,94248.88
2023-05-08T21:01:20.903Z,94246.06
2023-05-08T21:03:47.631Z,94237.16
2023-05-08T21:06:13.928Z,94242.00
2023-05-08T21:08:42.318Z,94242.00
2023-05-08T21:11:08.641Z,94243.03
2023-05-08T21:13:34.939Z,94244.81
2023-05-08T21:16:01.268Z,94235.97
2023-05-08T21:18:27.572Z,94244.41
2023-05-08T21:20:53.943Z,94248.88
2023-05-08T21:23:20.796Z,94240.41
2023-05-08T21:25:47.452Z,94239.19
2023-05-08T21:28:15.030Z,94239.59
2023-05-08T21:30:45.749Z,94238.00
2023-05-08T21:33:13.903Z,94233.53
2023-05-08T21:35:41.457Z,94226.69
2023-05-08T21:38:07.901Z,94231.13
2023-05-08T21:40:35.292Z,94238.59
2023-05-08T21:43:01.611Z,94225.25
2023-05-08T21:45:31.294Z,94224.25
2023-05-08T21:47:58.049Z,94224.66
2023-05-08T21:50:24.484Z,94227.06
2023-05-08T21:52:53.158Z,94229.88
2023-05-08T21:55:19.624Z,94229.09
2023-05-08T21:57:45.919Z,94228.09
2023-05-08T22:00:12.604Z,94223.03
2023-05-08T22:02:38.991Z,94221.44
2023-05-08T22:05:06.242Z,94221.03
2023-05-08T22:07:32.533Z,94204.88
2023-05-08T22:09:58.881Z,94209.94
2023-05-08T22:12:25.244Z,94217.78
2023-05-08T22:14:51.621Z,94214.56
2023-05-08T22:17:17.909Z,94222.22
2023-05-08T22:19:44.284Z,94219.00
2023-05-08T22:22:10.666Z,94212.16
2023-05-08T22:24:36.979Z,94213.78
2023-05-08T22:27:03.291Z,94217.19
2023-05-08T22:29:29.677Z,94212.16
2023-05-08T22:31:56.048Z,94214.56
2023-05-08T22:34:22.445Z,94209.09
2023-05-08T22:36:48.736Z,94208.88
2023-05-08T22:39:15.037Z,94212.94
2023-05-08T22:41:41.550Z,94214.13
2023-05-08T22:44:07.966Z,94208.47
2023-05-08T22:46:34.678Z,94208.09
2023-05-08T22:49:01.203Z,94207.25
2023-05-08T22:51:27.935Z,94198.00
2023-05-08T22:53:54.632Z,94204.81
2023-05-08T22:56:21.171Z,94204.00
2023-05-08T22:58:47.450Z,94199.97
2023-05-08T23:01:15.829Z,94197.34
2023-05-08T23:03:47.480Z,94193.72
2023-05-08T23:06:13.797Z,94194.34
2023-05-08T23:08:40.085Z,94189.09
2023-05-08T23:11:06.402Z,94078.63
2023-05-08T23:13:32.821Z,94180.84
2023-05-08T23:15:59.364Z,94178.22
2023-05-08T23:18:25.696Z,94186.69
2023-05-08T23:20:52.023Z,94178.88
2023-05-08T23:23:19.314Z,94181.91
2023-05-08T23:25:45.612Z,94183.09
2023-05-08T23:28:11.942Z,94179.88
2023-05-08T23:30:38.251Z,94181.31
2023-05-08T23:33:04.643Z,94175.03
2023-05-08T23:35:30.963Z,94180.28
2023-05-08T23:37:57.265Z,94175.66
2023-05-08T23:40:23.762Z,94174.88
2023-05-08T23:42:51.982Z,94169.00
2023-05-08T23:45:18.341Z,94171.41
2023-05-08T23:47:44.638Z,94159.34
2023-05-08T23:50:11.369Z,94159.75
2023-05-08T23:52:37.700Z,94167.22
2023-05-08T23:55:04.173Z,94164.19
2023-05-08T23:57:32.490Z,94160.13
2023-05-08T23:59:58.806Z,94156.94
